Time;durP1;ratioP1;P1;durP2;ratioP2;P2;SDS_P1;SDS_P2;PMS_P1;PMS_P2;Temp;Humidity;BMP_temperature;BMP_pressure;BME280_temperature;BME280_humidity;BME280_pressure;Samples;Min_cycle;Max_cycle;Signal;HPM_P1;HPM_P2
2021/09/02 00:01:54;;;;;;;11.10;10.13;;;15.50;99.90;;;;;;5013341;28;20498;-71
2021/09/02 00:04:19;;;;;;;12.67;10.00;;;15.50;99.90;;;;;;5011451;28;20196;-71
2021/09/02 00:06:45;;;;;;;10.80;9.70;;;15.50;99.90;;;;;;5012941;28;20185;-71
2021/09/02 00:09:11;;;;;;;12.20;10.27;;;15.50;99.90;;;;;;5012557;28;20185;-71
2021/09/02 00:11:37;;;;;;;10.00;9.00;;;15.50;99.90;;;;;;5014311;28;20265;-72
2021/09/02 00:14:02;;;;;;;11.57;10.43;;;15.50;99.90;;;;;;5024438;28;20539;-71
2021/09/02 00:16:28;;;;;;;12.50;10.90;;;15.50;99.90;;;;;;5012234;28;20243;-71
2021/09/02 00:18:54;;;;;;;10.30;9.33;;;15.50;99.90;;;;;;5012704;28;20182;-71
2021/09/02 00:21:19;;;;;;;12.17;10.93;;;15.50;99.90;;;;;;5012656;28;20545;-71
2021/09/02 00:23:46;;;;;;;11.67;10.33;;;15.50;99.90;;;;;;5012887;28;20203;-71
2021/09/02 00:26:12;;;;;;;10.57;9.47;;;15.50;99.90;;;;;;5013124;28;20210;-70
2021/09/02 00:28:38;;;;;;;10.10;9.10;;;15.40;99.90;;;;;;5011527;28;20514;-71
2021/09/02 00:31:04;;;;;;;10.23;8.90;;;15.40;99.90;;;;;;5012645;28;20425;-71
2021/09/02 00:33:30;;;;;;;9.70;8.90;;;15.40;99.90;;;;;;5012172;28;20417;-71
2021/09/02 00:35:56;;;;;;;10.10;9.03;;;15.40;99.90;;;;;;5012785;28;20661;-71
2021/09/02 00:38:21;;;;;;;11.13;9.80;;;15.40;99.90;;;;;;5009168;28;20276;-71
2021/09/02 00:40:47;;;;;;;9.47;8.00;;;15.40;99.90;;;;;;4984770;28;20190;-73
2021/09/02 00:43:13;;;;;;;10.93;8.97;;;15.40;99.90;;;;;;5001715;28;20191;-71
2021/09/02 00:45:38;;;;;;;11.40;9.43;;;15.30;99.90;;;;;;5002341;28;20188;-71
2021/09/02 00:48:05;;;;;;;9.70;8.67;;;15.30;99.90;;;;;;4998283;28;20208;-71
2021/09/02 00:50:30;;;;;;;9.70;8.63;;;15.30;99.90;;;;;;5001430;28;20536;-71
2021/09/02 00:53:01;;;;;;;10.80;9.50;;;15.30;99.90;;;;;;4985029;28;20452;-72
2021/09/02 00:55:27;;;;;;;10.13;9.13;;;15.20;99.90;;;;;;4992202;28;20215;-71
2021/09/02 00:57:52;;;;;;;11.90;10.20;;;15.20;99.90;;;;;;4993223;28;20410;-71
2021/09/02 01:00:19;;;;;;;11.50;10.30;;;15.20;99.90;;;;;;4993323;28;20221;-71
2021/09/02 01:02:46;;;;;;;11.93;10.77;;;15.20;99.90;;;;;;5012867;28;20515;-71
2021/09/02 01:05:15;;;;;;;10.03;9.00;;;15.20;99.90;;;;;;4975198;28;20426;-71
2021/09/02 01:07:41;;;;;;;11.73;10.30;;;15.20;99.90;;;;;;4973143;28;20422;-71
2021/09/02 01:10:08;;;;;;;11.73;9.80;;;15.20;99.90;;;;;;4973714;28;20406;-71
2021/09/02 01:12:49;;;;;;;10.20;8.23;;;15.20;99.90;;;;;;4973106;28;20413;-71
2021/09/02 01:15:21;;;;;;;11.30;10.20;;;15.20;99.90;;;;;;4973586;28;20458;-71
2021/09/02 01:17:49;;;;;;;10.37;9.33;;;15.10;99.90;;;;;;4977893;28;20794;-71
2021/09/02 01:20:17;;;;;;;9.10;8.30;;;15.20;99.90;;;;;;4993611;28;20413;-71
2021/09/02 01:22:47;;;;;;;11.13;8.63;;;15.10;99.90;;;;;;4997004;28;20527;-71
2021/09/02 01:25:15;;;;;;;9.47;8.20;;;15.10;99.90;;;;;;4996997;28;20416;-71
2021/09/02 01:27:44;;;;;;;11.30;9.87;;;15.20;99.90;;;;;;4996302;28;20412;-71
2021/09/02 01:30:13;;;;;;;13.37;9.27;;;15.10;99.90;;;;;;4979659;28;20425;-71
2021/09/02 01:32:44;;;;;;;9.90;8.93;;;15.10;99.90;;;;;;4996057;28;20409;-71
2021/09/02 01:35:11;;;;;;;9.80;8.80;;;15.10;99.90;;;;;;5001116;28;20971;-71
2021/09/02 01:37:41;;;;;;;15.73;9.60;;;15.10;99.90;;;;;;5015340;28;20455;-71
2021/09/02 01:40:09;;;;;;;11.57;10.20;;;15.10;99.90;;;;;;5016081;28;20426;-71
2021/09/02 01:42:35;;;;;;;10.83;9.83;;;15.10;99.90;;;;;;5014166;28;20493;-71
2021/09/02 01:45:01;;;;;;;12.60;9.73;;;15.10;99.90;;;;;;5015415;28;20417;-71
2021/09/02 01:47:27;;;;;;;12.10;10.90;;;15.00;99.90;;;;;;5015508;28;20502;-71
2021/09/02 01:49:54;;;;;;;14.27;10.63;;;15.00;99.90;;;;;;5016077;28;20200;-71
2021/09/02 01:52:21;;;;;;;16.73;11.40;;;15.00;99.90;;;;;;5015045;28;20476;-71
2021/09/02 01:54:47;;;;;;;15.23;11.53;;;15.00;99.90;;;;;;5016236;28;20522;-71
2021/09/02 01:57:15;;;;;;;13.57;11.80;;;15.00;99.90;;;;;;5015979;28;20442;-71
2021/09/02 01:59:41;;;;;;;14.03;12.53;;;15.00;99.90;;;;;;5015448;28;20489;-71
2021/09/02 02:02:06;;;;;;;17.07;12.13;;;15.00;99.90;;;;;;5015751;28;20878;-71
2021/09/02 02:04:32;;;;;;;18.00;12.30;;;15.10;99.90;;;;;;5014455;28;20425;-71
2021/09/02 02:06:58;;;;;;;15.70;11.63;;;15.10;99.90;;;;;;5014235;28;20624;-71
2021/09/02 02:09:24;;;;;;;28.77;13.07;;;15.10;99.90;;;;;;5014167;28;20263;-72
2021/09/02 02:11:49;;;;;;;18.40;13.27;;;15.10;99.90;;;;;;5014708;28;20191;-71
2021/09/02 02:14:15;;;;;;;20.67;12.03;;;15.00;99.90;;;;;;5014561;28;20310;-71
2021/09/02 02:16:41;;;;;;;16.70;12.30;;;15.00;99.90;;;;;;5015048;28;20237;-71
2021/09/02 02:19:06;;;;;;;20.50;14.40;;;15.00;99.90;;;;;;5015732;28;20189;-71
2021/09/02 02:21:32;;;;;;;15.80;12.00;;;15.00;99.90;;;;;;5015008;28;20180;-71
2021/09/02 02:23:58;;;;;;;18.57;11.63;;;14.90;99.90;;;;;;5015746;28;20170;-71
2021/09/02 02:26:24;;;;;;;24.27;11.03;;;15.00;99.90;;;;;;5015080;28;20182;-74
2021/09/02 02:28:49;;;;;;;11.67;10.43;;;15.00;99.90;;;;;;5015504;28;20170;-71
2021/09/02 02:31:15;;;;;;;16.47;11.10;;;14.90;99.90;;;;;;5014350;28;20205;-71
2021/09/02 02:33:41;;;;;;;13.60;10.07;;;14.90;99.90;;;;;;5014029;28;20181;-71
2021/09/02 02:36:06;;;;;;;12.47;11.17;;;14.90;99.90;;;;;;5013584;28;20249;-71
2021/09/02 02:38:32;;;;;;;28.53;10.70;;;14.90;99.90;;;;;;5013733;28;20234;-71
2021/09/02 02:40:58;;;;;;;13.67;10.20;;;14.90;99.90;;;;;;5015200;28;20189;-71
2021/09/02 02:43:24;;;;;;;15.80;9.83;;;14.80;99.90;;;;;;5014564;28;20408;-71
2021/09/02 02:45:50;;;;;;;21.63;10.50;;;14.70;99.90;;;;;;5014963;28;20179;-70
2021/09/02 02:48:15;;;;;;;12.73;10.17;;;14.70;99.90;;;;;;5013524;28;20175;-71
2021/09/02 02:50:41;;;;;;;17.37;10.03;;;14.70;99.90;;;;;;5014417;28;21140;-71
2021/09/02 02:53:07;;;;;;;24.10;11.37;;;14.70;99.90;;;;;;5014719;28;20655;-71
2021/09/02 02:55:33;;;;;;;27.10;11.27;;;14.70;99.90;;;;;;5014278;28;20316;-71
2021/09/02 02:57:58;;;;;;;15.20;9.80;;;14.70;99.90;;;;;;5014923;28;20201;-71
2021/09/02 03:00:24;;;;;;;14.07;11.00;;;14.70;99.90;;;;;;5013931;28;20179;-71
2021/09/02 03:02:50;;;;;;;21.70;11.57;;;14.70;99.90;;;;;;5014787;28;20168;-71
2021/09/02 03:05:15;;;;;;;55.57;11.13;;;14.70;99.90;;;;;;5014764;28;20187;-71
2021/09/02 03:07:41;;;;;;;27.87;11.37;;;14.70;99.90;;;;;;5013917;28;20176;-70
2021/09/02 03:10:08;;;;;;;27.67;11.50;;;14.60;99.90;;;;;;5014600;28;20330;-69
2021/09/02 03:12:35;;;;;;;39.67;12.00;;;14.60;99.90;;;;;;5014133;28;20182;-69
2021/09/02 03:15:01;;;;;;;45.63;12.70;;;14.70;99.90;;;;;;5014247;28;20428;-69
2021/09/02 03:17:27;;;;;;;11.23;10.10;;;14.60;99.90;;;;;;5013982;28;20414;-69
2021/09/02 03:19:53;;;;;;;12.70;10.30;;;14.60;99.90;;;;;;5014398;28;20406;-69
2021/09/02 03:22:18;;;;;;;15.43;9.80;;;14.70;99.90;;;;;;5014341;28;20249;-69
2021/09/02 03:24:44;;;;;;;17.57;10.40;;;14.60;99.90;;;;;;5013898;28;20438;-69
2021/09/02 03:27:10;;;;;;;16.10;10.47;;;14.70;99.90;;;;;;5014215;28;20191;-69
2021/09/02 03:29:36;;;;;;;11.50;9.60;;;14.70;99.90;;;;;;5013759;28;20179;-69
2021/09/02 03:32:01;;;;;;;10.93;9.83;;;14.70;99.90;;;;;;5013948;28;20632;-69
2021/09/02 03:34:27;;;;;;;10.80;9.70;;;14.80;99.90;;;;;;5013655;28;20176;-69
2021/09/02 03:36:53;;;;;;;12.37;9.53;;;14.80;99.90;;;;;;5014411;28;20231;-69
2021/09/02 03:39:19;;;;;;;11.80;9.10;;;14.80;99.90;;;;;;5013813;28;20553;-69
2021/09/02 03:41:45;;;;;;;19.90;9.80;;;14.90;99.90;;;;;;5013365;28;20414;-69
2021/09/02 03:44:11;;;;;;;13.30;11.97;;;14.90;99.90;;;;;;5014181;28;20442;-69
2021/09/02 03:46:37;;;;;;;11.67;10.47;;;14.90;99.90;;;;;;5013400;28;20175;-69
2021/09/02 03:49:03;;;;;;;30.53;12.10;;;14.90;99.90;;;;;;5032307;28;20456;-69
2021/09/02 03:51:29;;;;;;;67.03;11.90;;;14.90;99.90;;;;;;5033001;28;20414;-69
2021/09/02 03:53:55;;;;;;;25.60;12.00;;;14.80;99.90;;;;;;5026999;28;20424;-69
2021/09/02 03:56:24;;;;;;;18.93;10.23;;;14.80;99.90;;;;;;5013792;28;20203;-69
2021/09/02 03:58:51;;;;;;;16.70;11.87;;;14.80;99.90;;;;;;5014062;28;20178;-69
2021/09/02 04:01:18;;;;;;;22.63;11.93;;;14.80;99.90;;;;;;5013789;28;20417;-69
2021/09/02 04:03:44;;;;;;;14.10;10.67;;;14.80;99.90;;;;;;5013675;28;20480;-69
2021/09/02 04:06:10;;;;;;;44.33;12.33;;;14.70;99.90;;;;;;5013352;28;20429;-69
2021/09/02 04:08:35;;;;;;;42.00;11.57;;;14.70;99.90;;;;;;5012119;28;20214;-69
2021/09/02 04:11:01;;;;;;;33.60;10.87;;;14.80;99.90;;;;;;5032685;28;20183;-69
2021/09/02 04:13:27;;;;;;;17.73;11.13;;;14.80;99.90;;;;;;5015065;28;20211;-70
2021/09/02 04:15:53;;;;;;;14.77;13.47;;;14.80;99.90;;;;;;5032922;28;20505;-69
2021/09/02 04:18:19;;;;;;;51.90;11.50;;;14.80;99.90;;;;;;5033189;28;20175;-69
2021/09/02 04:20:45;;;;;;;15.03;10.97;;;14.80;99.90;;;;;;5032243;28;20194;-69
2021/09/02 04:23:11;;;;;;;42.53;13.20;;;14.80;99.90;;;;;;5033111;28;20397;-69
2021/09/02 04:25:37;;;;;;;15.27;13.60;;;14.80;99.90;;;;;;5032360;28;20186;-69
2021/09/02 04:28:03;;;;;;;13.50;12.20;;;14.70;99.90;;;;;;5033022;28;20178;-69
2021/09/02 04:30:28;;;;;;;18.60;11.60;;;14.80;99.90;;;;;;5032051;28;20545;-70
2021/09/02 04:32:54;;;;;;;31.40;11.67;;;14.80;99.90;;;;;;5013318;28;20409;-69
2021/09/02 04:35:20;;;;;;;12.67;11.20;;;14.80;99.90;;;;;;5013117;28;20233;-69
2021/09/02 04:37:47;;;;;;;18.63;10.60;;;14.80;99.90;;;;;;5012138;28;20189;-69
2021/09/02 04:40:14;;;;;;;12.70;11.40;;;14.80;99.90;;;;;;5013084;28;20179;-69
2021/09/02 04:42:40;;;;;;;16.50;10.37;;;14.80;99.90;;;;;;5011050;28;20432;-69
2021/09/02 04:45:07;;;;;;;18.20;10.03;;;14.80;99.90;;;;;;5012666;28;20424;-69
2021/09/02 04:47:33;;;;;;;17.50;10.17;;;14.80;99.90;;;;;;5012467;28;20899;-69
2021/09/02 04:49:59;;;;;;;10.80;9.27;;;14.70;99.90;;;;;;5013149;28;20403;-69
2021/09/02 04:52:25;;;;;;;12.73;9.63;;;14.70;99.90;;;;;;5011976;28;20467;-69
2021/09/02 04:54:51;;;;;;;10.60;9.50;;;14.70;99.90;;;;;;5011960;28;20466;-69
2021/09/02 04:57:19;;;;;;;15.17;9.10;;;14.80;99.90;;;;;;5012861;28;20455;-69
2021/09/02 04:59:46;;;;;;;12.00;10.30;;;14.80;99.90;;;;;;5011993;28;20541;-69
2021/09/02 05:02:12;;;;;;;11.53;10.43;;;14.70;99.90;;;;;;5013643;28;20461;-69
2021/09/02 05:04:38;;;;;;;10.70;8.87;;;14.70;99.90;;;;;;5032003;28;20492;-69
2021/09/02 05:07:04;;;;;;;11.63;10.40;;;14.70;99.90;;;;;;5032174;28;20527;-69
2021/09/02 05:09:30;;;;;;;13.17;11.87;;;14.70;99.90;;;;;;5032052;28;20406;-80
2021/09/02 05:11:55;;;;;;;11.60;10.50;;;14.60;99.90;;;;;;5032628;28;20187;-69
2021/09/02 05:14:21;;;;;;;11.93;10.43;;;14.60;99.90;;;;;;5032403;28;20188;-69
2021/09/02 05:16:47;;;;;;;12.00;10.80;;;14.60;99.90;;;;;;5031781;28;20214;-69
2021/09/02 05:19:12;;;;;;;18.23;11.60;;;14.70;99.90;;;;;;5032440;28;20256;-68
2021/09/02 05:21:38;;;;;;;12.13;10.83;;;14.70;99.90;;;;;;5030348;28;20175;-69
2021/09/02 05:24:04;;;;;;;13.07;10.60;;;14.60;99.90;;;;;;5032323;28;20179;-69
2021/09/02 05:26:31;;;;;;;20.87;10.87;;;14.60;99.90;;;;;;5031491;28;20212;-74
2021/09/02 05:28:56;;;;;;;13.17;11.77;;;14.60;99.90;;;;;;5012175;28;20429;-69
2021/09/02 05:31:22;;;;;;;11.90;10.53;;;14.60;99.90;;;;;;5011960;28;20426;-69
2021/09/02 05:33:48;;;;;;;19.30;11.23;;;14.60;99.90;;;;;;5011783;28;20177;-69
2021/09/02 05:36:14;;;;;;;22.37;11.77;;;14.60;99.90;;;;;;5012060;28;20469;-69
2021/09/02 05:38:40;;;;;;;14.97;13.20;;;14.60;99.90;;;;;;5011296;28;20183;-69
2021/09/02 05:41:06;;;;;;;39.10;12.67;;;14.60;99.90;;;;;;5012275;28;20953;-69
2021/09/02 05:43:32;;;;;;;28.73;14.67;;;14.60;99.90;;;;;;5012088;28;20846;-79
2021/09/02 05:45:58;;;;;;;48.30;12.60;;;14.50;99.90;;;;;;5011127;28;20187;-69
2021/09/02 05:48:24;;;;;;;28.27;12.50;;;14.40;99.90;;;;;;5010960;28;20874;-69
2021/09/02 05:50:52;;;;;;;67.03;14.23;;;14.40;99.90;;;;;;5010986;28;20548;-69
2021/09/02 05:53:23;;;;;;;29.77;13.43;;;14.30;99.90;;;;;;5011850;28;20190;-69
2021/09/02 05:55:50;;;;;;;32.27;13.47;;;14.30;99.90;;;;;;5011628;28;20544;-69
2021/09/02 05:58:17;;;;;;;32.10;14.70;;;14.30;99.90;;;;;;5012342;28;20446;-69
2021/09/02 06:00:43;;;;;;;23.13;13.93;;;14.30;99.90;;;;;;5011313;28;20417;-69
2021/09/02 06:03:09;;;;;;;17.17;13.67;;;14.20;99.90;;;;;;5012303;28;20723;-69
2021/09/02 06:05:34;;;;;;;51.30;13.23;;;14.30;99.90;;;;;;5011772;28;20654;-69
2021/09/02 06:08:00;;;;;;;22.43;14.43;;;14.30;99.90;;;;;;5013188;28;20197;-69
2021/09/02 06:10:26;;;;;;;59.60;15.40;;;14.30;99.90;;;;;;5015575;28;20181;-70
2021/09/02 06:12:53;;;;;;;34.03;12.70;;;14.40;99.90;;;;;;5014390;28;20178;-69
2021/09/02 06:15:19;;;;;;;54.07;13.73;;;14.40;99.90;;;;;;5014713;28;20184;-69
2021/09/02 06:17:45;;;;;;;18.43;15.10;;;14.40;99.90;;;;;;5014034;28;20402;-69
2021/09/02 06:20:11;;;;;;;16.10;14.40;;;14.40;99.90;;;;;;5014798;28;20813;-69
2021/09/02 06:22:37;;;;;;;24.07;12.80;;;14.50;99.90;;;;;;5013261;28;20187;-78
2021/09/02 06:25:04;;;;;;;22.00;14.53;;;14.60;99.90;;;;;;5013647;28;20514;-69
2021/09/02 06:27:30;;;;;;;24.07;12.93;;;14.70;99.90;;;;;;5014153;28;20915;-69
2021/09/02 06:29:56;;;;;;;16.70;12.30;;;14.80;99.90;;;;;;5013103;28;20874;-69
2021/09/02 06:32:22;;;;;;;16.87;12.53;;;14.90;99.90;;;;;;5013520;28;20480;-69
2021/09/02 06:34:48;;;;;;;20.73;12.33;;;14.80;99.90;;;;;;5012233;28;20185;-71
2021/09/02 06:37:14;;;;;;;16.30;13.17;;;14.90;99.90;;;;;;5014918;28;20454;-71
2021/09/02 06:39:40;;;;;;;15.33;12.97;;;15.20;99.90;;;;;;5014130;28;20265;-72
2021/09/02 06:42:06;;;;;;;14.37;11.90;;;15.50;99.90;;;;;;5014752;28;20432;-71
2021/09/02 06:44:31;;;;;;;17.73;12.43;;;15.90;99.90;;;;;;5014659;28;20205;-71
2021/09/02 06:46:57;;;;;;;13.47;12.07;;;16.20;99.90;;;;;;5012244;28;20433;-72
2021/09/02 06:49:23;;;;;;;15.23;13.10;;;16.40;99.90;;;;;;5013604;28;20213;-72
2021/09/02 06:51:48;;;;;;;13.67;12.27;;;16.60;99.90;;;;;;5013521;28;20293;-72
2021/09/02 06:54:14;;;;;;;14.10;12.60;;;16.80;99.90;;;;;;5013352;28;20186;-71
2021/09/02 06:56:40;;;;;;;13.47;11.17;;;17.10;99.90;;;;;;5014078;28;20289;-71
2021/09/02 06:59:06;;;;;;;11.63;10.43;;;17.30;99.90;;;;;;5013370;28;20177;-73
2021/09/02 07:01:32;;;;;;;10.27;9.37;;;17.50;99.90;;;;;;5013719;28;20258;-72
2021/09/02 07:03:57;;;;;;;9.67;8.67;;;17.70;99.90;;;;;;5013467;28;20200;-72
2021/09/02 07:06:23;;;;;;;11.17;10.07;;;17.80;99.90;;;;;;5013931;28;20627;-72
2021/09/02 07:08:49;;;;;;;8.43;7.60;;;17.90;99.90;;;;;;5013080;28;20265;-72
2021/09/02 07:11:15;;;;;;;9.27;8.57;;;18.00;99.90;;;;;;5012548;28;20805;-72
2021/09/02 07:13:41;;;;;;;8.17;7.47;;;18.10;99.90;;;;;;5013507;28;20185;-72
2021/09/02 07:16:06;;;;;;;10.03;7.93;;;18.20;99.90;;;;;;5013935;28;20306;-72
2021/09/02 07:18:32;;;;;;;8.57;7.70;;;18.10;99.40;;;;;;5013110;28;20175;-72
2021/09/02 07:20:58;;;;;;;10.17;9.20;;;17.90;99.90;;;;;;5012982;28;20163;-72
2021/09/02 07:23:23;;;;;;;12.20;7.77;;;17.80;99.90;;;;;;5009942;28;20175;-73
2021/09/02 07:25:49;;;;;;;9.73;8.83;;;17.50;99.90;;;;;;5009701;28;20221;-73
2021/09/02 07:28:15;;;;;;;11.20;10.27;;;17.60;99.90;;;;;;5009283;28;20187;-74
2021/09/02 07:30:41;;;;;;;10.93;9.93;;;17.60;99.90;;;;;;5012446;28;20253;-73
2021/09/02 07:33:07;;;;;;;11.67;10.67;;;17.70;99.90;;;;;;5011505;28;20182;-72
2021/09/02 07:35:33;;;;;;;11.60;10.40;;;17.70;99.90;;;;;;5008556;28;20479;-72
2021/09/02 07:37:59;;;;;;;12.30;10.20;;;17.70;99.90;;;;;;5010628;28;20414;-73
2021/09/02 07:40:25;;;;;;;13.37;10.63;;;17.80;99.90;;;;;;5007053;28;20423;-72
2021/09/02 07:42:51;;;;;;;12.53;11.23;;;17.90;99.90;;;;;;5013437;28;20787;-72
2021/09/02 07:45:16;;;;;;;13.80;11.70;;;17.90;99.90;;;;;;5011966;28;20534;-73
2021/09/02 07:47:42;;;;;;;14.73;12.20;;;17.60;99.90;;;;;;5012154;28;20258;-72
2021/09/02 07:50:08;;;;;;;13.37;11.97;;;17.30;99.90;;;;;;5012167;28;20237;-72
2021/09/02 07:52:36;;;;;;;14.00;12.17;;;17.20;99.90;;;;;;5011428;28;20175;-73
2021/09/02 07:55:03;;;;;;;14.83;13.27;;;17.20;99.90;;;;;;5012165;28;20414;-72
2021/09/02 07:57:29;;;;;;;15.30;13.70;;;17.00;99.90;;;;;;4994071;28;20493;-71
2021/09/02 07:59:55;;;;;;;14.33;12.80;;;16.90;99.90;;;;;;4993530;28;20669;-71
2021/09/02 08:02:21;;;;;;;16.37;12.30;;;16.80;99.90;;;;;;5012391;28;20182;-71
2021/09/02 08:04:46;;;;;;;15.73;13.10;;;16.80;99.90;;;;;;5013004;28;20304;-71
2021/09/02 08:07:12;;;;;;;18.67;15.90;;;16.80;99.90;;;;;;5012199;28;20191;-70
2021/09/02 08:09:38;;;;;;;15.23;12.23;;;16.90;99.90;;;;;;5012969;28;20175;-71
2021/09/02 08:12:03;;;;;;;15.57;13.97;;;16.90;99.90;;;;;;5013395;28;20179;-71
2021/09/02 08:14:29;;;;;;;16.67;12.93;;;17.00;99.90;;;;;;5013020;28;20573;-71
2021/09/02 08:16:55;;;;;;;15.43;13.43;;;17.10;99.90;;;;;;5010993;28;20210;-72
2021/09/02 08:19:21;;;;;;;18.93;12.87;;;17.20;99.90;;;;;;5013138;28;20194;-71
2021/09/02 08:21:47;;;;;;;15.30;13.57;;;17.20;99.90;;;;;;5012779;28;20198;-72
2021/09/02 08:24:14;;;;;;;15.50;13.90;;;17.30;99.90;;;;;;5013310;28;20612;-72
2021/09/02 08:26:40;;;;;;;15.90;13.50;;;17.40;99.90;;;;;;5012766;28;20418;-72
2021/09/02 08:29:05;;;;;;;16.07;13.00;;;17.40;99.90;;;;;;5012939;28;20410;-70
2021/09/02 08:31:32;;;;;;;20.20;14.50;;;17.50;99.90;;;;;;5011739;28;20183;-70
2021/09/02 08:33:57;;;;;;;18.27;12.60;;;17.60;99.90;;;;;;5008457;28;20402;-70
2021/09/02 08:36:23;;;;;;;19.80;14.37;;;17.70;99.90;;;;;;5011463;28;20474;-73
2021/09/02 08:38:49;;;;;;;19.93;14.07;;;17.70;99.90;;;;;;5007441;28;20183;-71
2021/09/02 08:41:18;;;;;;;19.17;14.00;;;17.80;99.90;;;;;;5007203;28;20190;-71
2021/09/02 08:43:46;;;;;;;19.87;13.60;;;17.90;99.90;;;;;;5012686;28;20207;-71
2021/09/02 08:46:12;;;;;;;18.17;14.20;;;17.90;99.90;;;;;;5022249;28;20460;-70
2021/09/02 08:48:43;;;;;;;15.33;13.60;;;18.00;99.90;;;;;;5011825;28;20418;-77
2021/09/02 08:51:09;;;;;;;17.90;14.67;;;18.00;99.90;;;;;;5012254;28;20409;-69
2021/09/02 08:53:35;;;;;;;20.40;16.43;;;18.10;99.90;;;;;;5011746;28;20433;-70
2021/09/02 08:56:01;;;;;;;16.40;14.07;;;18.10;99.90;;;;;;5011105;28;20449;-70
2021/09/02 08:58:27;;;;;;;18.07;16.00;;;18.20;99.90;;;;;;5012771;28;20189;-71
2021/09/02 09:00:53;;;;;;;18.70;13.50;;;18.30;99.90;;;;;;5011947;28;20191;-71
2021/09/02 09:03:19;;;;;;;20.70;15.77;;;18.40;99.90;;;;;;5012770;28;20214;-70
2021/09/02 09:05:56;;;;;;;22.37;13.80;;;18.50;99.90;;;;;;5011820;28;20261;-71
2021/09/02 09:08:42;;;;;;;18.90;15.70;;;18.60;99.90;;;;;;5012573;28;20398;-74
2021/09/02 09:11:16;;;;;;;16.57;14.10;;;18.70;99.90;;;;;;4993622;28;20391;-72
2021/09/02 09:13:43;;;;;;;16.17;14.47;;;18.90;99.90;;;;;;4992600;28;20455;-72
2021/09/02 09:16:09;;;;;;;18.27;13.70;;;19.00;99.90;;;;;;5008953;28;20479;-71
2021/09/02 09:18:42;;;;;;;16.03;13.03;;;19.20;99.90;;;;;;5026477;28;20949;-73
2021/09/02 09:21:13;;;;;;;15.03;11.67;;;19.30;99.90;;;;;;5022000;28;20425;-71
2021/09/02 09:23:54;;;;;;;17.53;13.47;;;19.50;99.90;;;;;;5012741;28;20753;-71
2021/09/02 09:26:22;;;;;;;17.43;14.07;;;19.70;99.90;;;;;;5011113;28;20420;-71
2021/09/02 09:28:48;;;;;;;14.10;12.10;;;19.80;99.90;;;;;;5012310;28;20421;-71
2021/09/02 09:31:30;;;;;;;15.17;13.53;;;19.90;99.90;;;;;;5012650;28;20889;-70
2021/09/02 09:33:57;;;;;;;18.50;12.90;;;20.10;99.90;;;;;;5012035;28;20419;-71
2021/09/02 09:36:24;;;;;;;16.43;14.20;;;20.30;99.90;;;;;;5012651;28;20470;-71
2021/09/02 09:39:02;;;;;;;16.33;14.73;;;20.50;99.90;;;;;;5011764;28;20821;-71
2021/09/02 09:41:41;;;;;;;13.77;12.13;;;20.70;99.90;;;;;;5013734;28;20535;-71
2021/09/02 09:44:23;;;;;;;16.30;14.80;;;20.90;99.90;;;;;;5016603;28;20414;-71
2021/09/02 09:47:14;;;;;;;16.30;14.23;;;21.10;99.90;;;;;;5015810;28;20476;-71
2021/09/02 09:49:50;;;;;;;14.80;12.33;;;21.30;99.90;;;;;;5016164;28;20421;-71
2021/09/02 09:52:41;;;;;;;15.93;14.27;;;21.40;99.90;;;;;;5016324;28;20460;-71
2021/09/02 09:55:08;;;;;;;15.50;13.27;;;21.70;99.90;;;;;;5016195;28;20465;-71
2021/09/02 09:57:36;;;;;;;15.77;14.17;;;21.80;99.60;;;;;;5015301;28;20528;-71
2021/09/02 10:00:10;;;;;;;16.20;12.30;;;22.00;99.50;;;;;;5014070;28;20656;-71
2021/09/02 10:02:38;;;;;;;15.47;12.20;;;22.20;98.60;;;;;;5014143;28;20897;-71
2021/09/02 10:05:05;;;;;;;17.43;15.80;;;22.10;97.70;;;;;;5013636;28;20421;-71
2021/09/02 10:07:34;;;;;;;12.83;11.50;;;22.10;97.80;;;;;;5011758;28;20426;-71
2021/09/02 10:10:00;;;;;;;12.60;11.43;;;22.20;99.90;;;;;;5013783;28;20426;-71
2021/09/02 10:12:26;;;;;;;13.97;12.47;;;22.50;99.80;;;;;;5013296;28;20402;-71
2021/09/02 10:14:53;;;;;;;13.67;12.37;;;22.70;99.30;;;;;;5012524;28;20780;-71
2021/09/02 10:17:19;;;;;;;13.70;12.30;;;22.90;98.30;;;;;;5014219;28;20242;-72
2021/09/02 10:19:46;;;;;;;15.33;13.93;;;23.20;97.90;;;;;;5013885;28;20430;-75
2021/09/02 10:22:12;;;;;;;15.60;14.10;;;23.30;97.70;;;;;;5014126;28;20186;-71
2021/09/02 10:24:40;;;;;;;15.20;13.70;;;23.50;97.10;;;;;;5013956;28;20411;-72
2021/09/02 10:27:17;;;;;;;16.27;14.73;;;23.70;97.10;;;;;;5013254;28;20454;-70
2021/09/02 10:29:45;;;;;;;16.17;12.90;;;23.80;95.20;;;;;;5013448;28;20397;-72
2021/09/02 10:32:22;;;;;;;15.40;11.90;;;23.70;93.90;;;;;;5014067;28;20505;-71
2021/09/02 10:35:12;;;;;;;14.20;12.70;;;23.80;94.90;;;;;;5009672;28;20440;-71
2021/09/02 10:37:43;;;;;;;13.97;12.67;;;23.90;95.60;;;;;;5001626;28;20475;-72
2021/09/02 10:40:15;;;;;;;12.10;10.80;;;23.70;93.40;;;;;;5001469;28;20418;-71
2021/09/02 10:42:58;;;;;;;15.33;10.70;;;23.70;94.60;;;;;;5003068;28;20402;-71
2021/09/02 10:45:33;;;;;;;13.10;11.70;;;23.80;94.90;;;;;;5004559;28;20418;-71
2021/09/02 10:48:07;;;;;;;15.37;10.53;;;23.80;93.20;;;;;;4999653;28;20461;-71
2021/09/02 10:50:38;;;;;;;11.53;10.53;;;23.80;93.10;;;;;;4994303;28;20409;-71
2021/09/02 10:53:10;;;;;;;12.13;10.93;;;23.90;93.50;;;;;;4973016;28;20461;-71
2021/09/02 10:55:40;;;;;;;11.80;10.60;;;23.80;91.80;;;;;;4993542;28;21124;-70
2021/09/02 10:58:08;;;;;;;14.53;13.03;;;23.70;93.40;;;;;;4991210;28;20442;-71
2021/09/02 11:00:42;;;;;;;11.93;10.70;;;23.70;94.20;;;;;;4993710;28;20407;-71
2021/09/02 11:03:21;;;;;;;13.63;12.47;;;23.60;93.30;;;;;;4990957;28;20509;-71
2021/09/02 11:05:58;;;;;;;12.00;9.40;;;23.50;93.20;;;;;;4990767;28;20426;-71
2021/09/02 11:08:30;;;;;;;13.20;12.20;;;23.30;93.40;;;;;;4991463;28;20506;-71
2021/09/02 11:11:19;;;;;;;11.83;10.40;;;23.30;93.90;;;;;;4993152;28;20415;-71
2021/09/02 11:13:50;;;;;;;11.83;10.83;;;23.40;94.30;;;;;;4990912;28;20461;-71
2021/09/02 11:16:21;;;;;;;13.53;12.13;;;23.40;92.50;;;;;;4993694;28;20458;-71
2021/09/02 11:18:51;;;;;;;11.60;10.60;;;23.50;93.80;;;;;;4991353;28;20490;-71
2021/09/02 11:21:21;;;;;;;10.50;9.40;;;23.60;93.50;;;;;;4993518;28;20793;-72
2021/09/02 11:23:48;;;;;;;13.67;12.30;;;23.80;94.20;;;;;;4993040;28;20439;-71
2021/09/02 11:26:33;;;;;;;13.17;11.70;;;23.90;92.50;;;;;;4996410;28;20418;-72
2021/09/02 11:28:59;;;;;;;13.17;10.87;;;24.10;92.70;;;;;;4991707;28;20429;-75
2021/09/02 11:31:25;;;;;;;17.73;15.93;;;24.20;92.60;;;;;;4992636;28;20422;-73
2021/09/02 11:33:52;;;;;;;16.80;15.17;;;24.40;94.10;;;;;;4993636;28;20430;-73
2021/09/02 11:36:20;;;;;;;13.57;12.37;;;24.50;93.60;;;;;;5000649;28;20476;-73
2021/09/02 11:38:47;;;;;;;11.70;10.70;;;24.50;93.00;;;;;;5013376;28;20406;-74
2021/09/02 11:41:23;;;;;;;12.60;11.40;;;24.50;92.50;;;;;;5014293;28;20420;-73
2021/09/02 11:43:53;;;;;;;13.13;11.90;;;24.40;92.70;;;;;;5013557;28;20394;-73
2021/09/02 11:46:21;;;;;;;15.17;13.60;;;24.50;94.40;;;;;;5011762;28;20413;-73
2021/09/02 11:48:57;;;;;;;13.00;11.80;;;24.40;93.70;;;;;;5012937;28;20418;-74
2021/09/02 11:51:29;;;;;;;15.13;13.53;;;24.50;93.80;;;;;;5013634;28;20398;-73
2021/09/02 11:54:11;;;;;;;15.23;14.03;;;24.50;93.10;;;;;;5013030;28;20940;-73
2021/09/02 11:56:39;;;;;;;13.77;12.57;;;24.50;93.60;;;;;;5013433;28;20453;-73
2021/09/02 11:59:08;;;;;;;15.00;13.30;;;24.50;93.40;;;;;;5012628;28;20433;-73
2021/09/02 12:01:44;;;;;;;15.47;14.07;;;24.50;93.50;;;;;;5013922;28;20449;-72
2021/09/02 12:04:24;;;;;;;13.63;12.37;;;24.60;93.70;;;;;;5013435;28;20822;-72
2021/09/02 12:06:56;;;;;;;12.83;11.60;;;24.70;93.70;;;;;;5012868;28;20414;-72
2021/09/02 12:09:34;;;;;;;15.13;13.63;;;24.60;93.20;;;;;;5013107;28;20423;-72
2021/09/02 12:12:00;;;;;;;16.00;14.40;;;24.80;93.30;;;;;;5012949;28;20425;-72
2021/09/02 12:14:29;;;;;;;17.97;14.40;;;24.80;94.20;;;;;;5013485;28;20800;-72
2021/09/02 12:17:05;;;;;;;14.80;13.30;;;24.90;94.30;;;;;;5012778;28;20537;-72
2021/09/02 12:19:54;;;;;;;14.67;13.23;;;25.10;94.10;;;;;;5013142;28;20426;-72
2021/09/02 12:22:24;;;;;;;17.60;15.50;;;25.10;93.80;;;;;;5013413;28;20409;-71
2021/09/02 12:24:49;;;;;;;16.90;15.20;;;25.20;93.10;;;;;;5011317;28;20448;-72
2021/09/02 12:27:15;;;;;;;15.77;14.40;;;25.30;93.30;;;;;;5013102;28;20410;-72
2021/09/02 12:29:51;;;;;;;17.97;16.27;;;25.40;93.00;;;;;;5012912;28;20225;-72
2021/09/02 12:32:18;;;;;;;18.07;15.33;;;25.30;92.40;;;;;;5012829;28;20544;-71